Accueil
METAR-TAF:

METAR-TAF

Aéroports :

Base aérienne de Coxyde

Coxyde, Belgique

latitude: 51-05N, longitude: 002-39E, altitude: 4 m

Observation

Le bulletin a été fait il y a 52 minutes, à 12:25 UTC
Vent 9 kt de ouest/nord-ouest
Température 20°C
Humidité 60%
Pression 1026 hPa
Visibilité 10 km ou plus
Quelques nuages à une hauteur de 24000 ft

METAR: EBFN 221225Z 29009KT 9999 FEW240 20/12 Q1026 BLACKBLU BLU

Heure: 15:17 (13:17 UTC)

Prévision

Le bulletin a été fait il y a 1 heure et 36 minutes, à 11:41 UTC
Prévision valable du 22 à 13 UTC au 22 à 22 UTC
Vent 10 kt de ouest
Visibilité 10 km ou plus
Nuages épars à une hauteur de 22000 ft

TAF: EBFN 221141Z 2213/2222 28010KT 9999 SCT220

Observations et prévisions météorologiques de plus de 4000 aéroports (messages METAR et TAF).

Les stations disponibles sont représentées par des disques jaunes et rouges sur la carte.

Passer la souris dessus pour voir le nom de la station.

Cliquer dessus pour voir les observations et prévisions météorologiques.

Pour changer de carte: cliquez sur les boutons verts avec une croix noire pour zoomer, sur le bouton vert avec un tiret pour effectuer un zoom arrière, ou sur les flèches vertes pour les cartes adjacentes.


METAR-TAF: